sensor_id;sensor_type;location;lat;lon;timestamp;pressure;altitude;pressure_sealevel;temperature;humidity
5952;BME280;3001;42.622;23.194;2024-02-23T00:01:08;91003.38;;;18.02;41.52
5952;BME280;3001;42.622;23.194;2024-02-23T00:03:36;91011.31;;;17.83;41.66
5952;BME280;3001;42.622;23.194;2024-02-23T00:06:04;91003.06;;;18.07;41.13
5952;BME280;3001;42.622;23.194;2024-02-23T00:08:31;91001.13;;;17.81;41.77
5952;BME280;3001;42.622;23.194;2024-02-23T00:10:58;90998.50;;;18.04;41.37
5952;BME280;3001;42.622;23.194;2024-02-23T00:13:24;90990.09;;;18.40;40.66
5952;BME280;3001;42.622;23.194;2024-02-23T00:15:50;90982.94;;;18.40;40.70
5952;BME280;3001;42.622;23.194;2024-02-23T00:18:17;90988.13;;;18.37;40.40
5952;BME280;3001;42.622;23.194;2024-02-23T00:20:43;91002.22;;;18.48;39.93
5952;BME280;3001;42.622;23.194;2024-02-23T00:23:12;90991.84;;;18.32;40.54
5952;BME280;3001;42.622;23.194;2024-02-23T00:25:38;90990.09;;;18.40;40.11
5952;BME280;3001;42.622;23.194;2024-02-23T00:28:05;90988.91;;;18.37;40.20
5952;BME280;3001;42.622;23.194;2024-02-23T00:30:33;90980.28;;;18.14;40.76
5952;BME280;3001;42.622;23.194;2024-02-23T00:32:59;90975.66;;;17.85;40.99
5952;BME280;3001;42.622;23.194;2024-02-23T00:35:26;90977.78;;;17.99;41.04
5952;BME280;3001;42.622;23.194;2024-02-23T00:37:53;90984.91;;;18.47;40.27
5952;BME280;3001;42.622;23.194;2024-02-23T00:40:21;90982.72;;;18.78;39.32
5952;BME280;3001;42.622;23.194;2024-02-23T00:42:48;90972.56;;;18.02;40.57
5952;BME280;3001;42.622;23.194;2024-02-23T00:45:15;90964.34;;;18.04;40.83
5952;BME280;3001;42.622;23.194;2024-02-23T00:47:42;90956.25;;;18.16;40.95
5952;BME280;3001;42.622;23.194;2024-02-23T00:50:11;90965.56;;;18.32;40.62
5952;BME280;3001;42.622;23.194;2024-02-23T00:52:38;90957.97;;;18.05;41.03
5952;BME280;3001;42.622;23.194;2024-02-23T00:55:05;90957.59;;;18.06;41.15
5952;BME280;3001;42.622;23.194;2024-02-23T00:57:34;90952.53;;;18.43;40.15
5952;BME280;3001;42.622;23.194;2024-02-23T01:00:02;90937.50;;;18.17;40.72
5952;BME280;3001;42.622;23.194;2024-02-23T01:02:30;90955.59;;;18.45;40.31
5952;BME280;3001;42.622;23.194;2024-02-23T01:04:58;90953.50;;;18.31;40.06
5952;BME280;3001;42.622;23.194;2024-02-23T01:07:25;90952.22;;;18.48;39.87
5952;BME280;3001;42.622;23.194;2024-02-23T01:09:51;90942.31;;;18.38;40.10
5952;BME280;3001;42.622;23.194;2024-02-23T01:12:18;90948.66;;;18.33;40.19
5952;BME280;3001;42.622;23.194;2024-02-23T01:14:46;90947.69;;;18.22;40.38
5952;BME280;3001;42.622;23.194;2024-02-23T01:17:13;90949.25;;;18.49;39.70
5952;BME280;3001;42.622;23.194;2024-02-23T01:19:41;90947.22;;;18.13;40.17
5952;BME280;3001;42.622;23.194;2024-02-23T01:22:07;90951.47;;;18.47;39.52
5952;BME280;3001;42.622;23.194;2024-02-23T01:24:34;90950.41;;;18.26;39.57
5952;BME280;3001;42.622;23.194;2024-02-23T01:27:01;90948.19;;;18.54;39.03
5952;BME280;3001;42.622;23.194;2024-02-23T01:29:28;90939.97;;;18.88;38.23
5952;BME280;3001;42.622;23.194;2024-02-23T01:31:56;90946.25;;;18.25;39.16
5952;BME280;3001;42.622;23.194;2024-02-23T01:34:24;90934.25;;;18.01;39.91
5952;BME280;3001;42.622;23.194;2024-02-23T01:36:50;90927.78;;;18.47;38.96
5952;BME280;3001;42.622;23.194;2024-02-23T01:39:17;90929.03;;;18.57;39.02
5952;BME280;3001;42.622;23.194;2024-02-23T01:41:44;90921.38;;;18.45;39.13
5952;BME280;3001;42.622;23.194;2024-02-23T01:44:10;90922.50;;;18.73;38.59
5952;BME280;3001;42.622;23.194;2024-02-23T01:46:37;90937.84;;;18.68;38.62
5952;BME280;3001;42.622;23.194;2024-02-23T01:49:07;90909.13;;;18.04;40.24
5952;BME280;3001;42.622;23.194;2024-02-23T01:51:34;90926.19;;;18.69;39.13
5952;BME280;3001;42.622;23.194;2024-02-23T01:54:01;90915.41;;;18.48;39.33
5952;BME280;3001;42.622;23.194;2024-02-23T01:56:29;90921.72;;;18.43;39.72
5952;BME280;3001;42.622;23.194;2024-02-23T01:58:56;90906.91;;;18.06;39.77
5952;BME280;3001;42.622;23.194;2024-02-23T02:01:22;90896.72;;;18.01;40.17
5952;BME280;3001;42.622;23.194;2024-02-23T02:03:50;90901.63;;;18.28;39.79
5952;BME280;3001;42.622;23.194;2024-02-23T02:06:18;90896.53;;;18.39;39.44
5952;BME280;3001;42.622;23.194;2024-02-23T02:08:45;90904.53;;;18.49;39.33
5952;BME280;3001;42.622;23.194;2024-02-23T02:11:12;90898.78;;;18.40;39.38
5952;BME280;3001;42.622;23.194;2024-02-23T02:13:40;90893.84;;;18.13;39.82
5952;BME280;3001;42.622;23.194;2024-02-23T02:16:07;90887.38;;;18.29;39.32
5952;BME280;3001;42.622;23.194;2024-02-23T02:18:33;90908.63;;;18.21;39.42
5952;BME280;3001;42.622;23.194;2024-02-23T02:21:00;90887.34;;;18.03;39.91
5952;BME280;3001;42.622;23.194;2024-02-23T02:23:28;90880.00;;;18.16;39.69
5952;BME280;3001;42.622;23.194;2024-02-23T02:25:55;90903.00;;;18.22;39.50
5952;BME280;3001;42.622;23.194;2024-02-23T02:28:23;90880.63;;;18.06;39.91
5952;BME280;3001;42.622;23.194;2024-02-23T02:30:50;90894.94;;;18.08;39.91
5952;BME280;3001;42.622;23.194;2024-02-23T02:33:18;90886.34;;;18.11;39.79
5952;BME280;3001;42.622;23.194;2024-02-23T02:35:44;90902.25;;;18.48;39.10
5952;BME280;3001;42.622;23.194;2024-02-23T02:38:11;90899.88;;;18.39;39.35
5952;BME280;3001;42.622;23.194;2024-02-23T02:40:39;90892.41;;;18.15;39.25
5952;BME280;3001;42.622;23.194;2024-02-23T02:43:06;90901.97;;;18.27;39.24
5952;BME280;3001;42.622;23.194;2024-02-23T02:45:33;90868.69;;;18.12;39.20
5952;BME280;3001;42.622;23.194;2024-02-23T02:48:00;90901.97;;;18.01;39.39
5952;BME280;3001;42.622;23.194;2024-02-23T02:50:27;90894.72;;;17.94;39.28
5952;BME280;3001;42.622;23.194;2024-02-23T02:52:54;90889.09;;;17.70;39.86
5952;BME280;3001;42.622;23.194;2024-02-23T02:55:21;90899.81;;;18.10;38.90
5952;BME280;3001;42.622;23.194;2024-02-23T02:57:49;90901.88;;;18.20;39.02
5952;BME280;3001;42.622;23.194;2024-02-23T03:00:16;90913.31;;;18.31;38.83
5952;BME280;3001;42.622;23.194;2024-02-23T03:02:43;90908.97;;;18.19;38.93
5952;BME280;3001;42.622;23.194;2024-02-23T03:05:10;90905.06;;;17.58;39.78
5952;BME280;3001;42.622;23.194;2024-02-23T03:07:36;90909.22;;;17.85;39.60
5952;BME280;3001;42.622;23.194;2024-02-23T03:10:04;90909.34;;;18.18;39.18
5952;BME280;3001;42.622;23.194;2024-02-23T03:12:31;90905.47;;;18.34;38.82
5952;BME280;3001;42.622;23.194;2024-02-23T03:14:59;90901.72;;;18.35;38.66
5952;BME280;3001;42.622;23.194;2024-02-23T03:17:27;90916.84;;;18.42;38.33
5952;BME280;3001;42.622;23.194;2024-02-23T03:19:54;90916.66;;;18.05;39.14
5952;BME280;3001;42.622;23.194;2024-02-23T03:22:21;90921.09;;;18.01;39.45
5952;BME280;3001;42.622;23.194;2024-02-23T03:24:47;90916.41;;;18.14;39.37
5952;BME280;3001;42.622;23.194;2024-02-23T03:27:14;90916.63;;;18.28;39.24
5952;BME280;3001;42.622;23.194;2024-02-23T03:29:41;90919.28;;;18.57;37.99
5952;BME280;3001;42.622;23.194;2024-02-23T03:32:09;90907.19;;;18.49;38.28
5952;BME280;3001;42.622;23.194;2024-02-23T03:34:35;90914.22;;;18.42;38.35
5952;BME280;3001;42.622;23.194;2024-02-23T03:37:03;90919.75;;;18.11;38.74
5952;BME280;3001;42.622;23.194;2024-02-23T03:39:30;90920.03;;;18.28;38.47
5952;BME280;3001;42.622;23.194;2024-02-23T03:41:58;90934.22;;;18.50;37.71
5952;BME280;3001;42.622;23.194;2024-02-23T03:44:24;90927.22;;;18.31;38.18
5952;BME280;3001;42.622;23.194;2024-02-23T03:46:51;90922.69;;;18.32;38.04
5952;BME280;3001;42.622;23.194;2024-02-23T03:49:19;90921.84;;;18.80;37.59
5952;BME280;3001;42.622;23.194;2024-02-23T03:51:46;90924.22;;;18.59;37.62
5952;BME280;3001;42.622;23.194;2024-02-23T03:54:12;90942.38;;;18.71;37.46
5952;BME280;3001;42.622;23.194;2024-02-23T03:56:39;90926.53;;;18.64;37.62
5952;BME280;3001;42.622;23.194;2024-02-23T03:59:07;90925.53;;;18.75;37.33
5952;BME280;3001;42.622;23.194;2024-02-23T04:01:36;90925.72;;;18.93;37.02
5952;BME280;3001;42.622;23.194;2024-02-23T04:04:03;90933.75;;;18.44;37.65
5952;BME280;3001;42.622;23.194;2024-02-23T04:06:31;90930.03;;;18.75;37.16
5952;BME280;3001;42.622;23.194;2024-02-23T04:08:58;90915.94;;;18.60;37.07
5952;BME280;3001;42.622;23.194;2024-02-23T04:11:25;90926.97;;;18.17;38.11
5952;BME280;3001;42.622;23.194;2024-02-23T04:13:51;90927.66;;;18.37;37.73
5952;BME280;3001;42.622;23.194;2024-02-23T04:16:21;90925.06;;;18.40;37.84
5952;BME280;3001;42.622;23.194;2024-02-23T04:18:48;90932.88;;;18.33;37.91
5952;BME280;3001;42.622;23.194;2024-02-23T04:21:15;90938.69;;;18.46;37.78
5952;BME280;3001;42.622;23.194;2024-02-23T04:23:44;90933.03;;;18.21;38.35
5952;BME280;3001;42.622;23.194;2024-02-23T04:26:11;90925.97;;;18.25;38.31
5952;BME280;3001;42.622;23.194;2024-02-23T04:28:38;90925.22;;;18.51;37.89
5952;BME280;3001;42.622;23.194;2024-02-23T04:31:04;90924.06;;;18.48;37.82
5952;BME280;3001;42.622;23.194;2024-02-23T04:33:31;90913.53;;;18.22;38.37
5952;BME280;3001;42.622;23.194;2024-02-23T04:35:58;90915.13;;;18.27;38.04
5952;BME280;3001;42.622;23.194;2024-02-23T04:38:25;90913.94;;;18.24;38.52
5952;BME280;3001;42.622;23.194;2024-02-23T04:40:53;90919.16;;;18.47;37.96
5952;BME280;3001;42.622;23.194;2024-02-23T04:43:19;90913.38;;;18.64;37.64
5952;BME280;3001;42.622;23.194;2024-02-23T04:45:46;90920.22;;;18.72;37.54
5952;BME280;3001;42.622;23.194;2024-02-23T04:48:13;90919.34;;;18.09;38.37
5952;BME280;3001;42.622;23.194;2024-02-23T04:50:39;90910.09;;;18.44;38.11
5952;BME280;3001;42.622;23.194;2024-02-23T04:53:06;90899.88;;;18.39;38.61
5952;BME280;3001;42.622;23.194;2024-02-23T04:55:33;90911.84;;;18.63;37.86
5952;BME280;3001;42.622;23.194;2024-02-23T04:58:01;90918.50;;;18.53;38.12
5952;BME280;3001;42.622;23.194;2024-02-23T05:00:28;90919.78;;;18.66;37.82
5952;BME280;3001;42.622;23.194;2024-02-23T05:02:58;90925.06;;;18.40;38.04
5952;BME280;3001;42.622;23.194;2024-02-23T05:05:25;90926.78;;;18.55;37.77
5952;BME280;3001;42.622;23.194;2024-02-23T05:07:51;90935.28;;;18.75;37.56
5952;BME280;3001;42.622;23.194;2024-02-23T05:10:18;90934.84;;;18.40;38.18
5952;BME280;3001;42.622;23.194;2024-02-23T05:12:45;90933.38;;;18.42;38.28
5952;BME280;3001;42.622;23.194;2024-02-23T05:15:13;90938.16;;;18.63;38.04
5952;BME280;3001;42.622;23.194;2024-02-23T05:17:40;90925.69;;;18.30;38.32
5952;BME280;3001;42.622;23.194;2024-02-23T05:20:07;90930.38;;;18.18;39.04
5952;BME280;3001;42.622;23.194;2024-02-23T05:22:35;90930.78;;;18.20;39.02
5952;BME280;3001;42.622;23.194;2024-02-23T05:25:02;90929.16;;;18.12;39.19
5952;BME280;3001;42.622;23.194;2024-02-23T05:27:30;90931.53;;;18.46;38.65
5952;BME280;3001;42.622;23.194;2024-02-23T05:29:57;90923.72;;;18.01;39.62
5952;BME280;3001;42.622;23.194;2024-02-23T05:32:25;90934.56;;;18.78;38.18
5952;BME280;3001;42.622;23.194;2024-02-23T05:34:52;90926.69;;;18.78;38.30
5952;BME280;3001;42.622;23.194;2024-02-23T05:37:19;90930.41;;;18.77;38.03
5952;BME280;3001;42.622;23.194;2024-02-23T05:39:46;90934.09;;;18.69;38.05
5952;BME280;3001;42.622;23.194;2024-02-23T05:42:13;90923.31;;;18.48;38.37
5952;BME280;3001;42.622;23.194;2024-02-23T05:44:40;90924.94;;;18.59;38.88
5952;BME280;3001;42.622;23.194;2024-02-23T05:47:09;90934.94;;;18.47;39.06
5952;BME280;3001;42.622;23.194;2024-02-23T05:49:37;90920.28;;;18.75;38.56
5952;BME280;3001;42.622;23.194;2024-02-23T05:52:04;90931.38;;;18.62;38.57
5952;BME280;3001;42.622;23.194;2024-02-23T05:54:30;90918.34;;;18.43;39.14
5952;BME280;3001;42.622;23.194;2024-02-23T05:56:57;90928.72;;;18.32;39.59
5952;BME280;3001;42.622;23.194;2024-02-23T05:59:24;90933.94;;;18.29;39.33
5952;BME280;3001;42.622;23.194;2024-02-23T06:01:51;90918.13;;;17.77;40.20
5952;BME280;3001;42.622;23.194;2024-02-23T06:04:22;90940.19;;;18.21;39.82
5952;BME280;3001;42.622;23.194;2024-02-23T06:06:50;90950.22;;;18.67;38.62
5952;BME280;3001;42.622;23.194;2024-02-23T06:09:16;90946.19;;;18.47;38.80
5952;BME280;3001;42.622;23.194;2024-02-23T06:11:44;90950.66;;;18.43;39.00
5952;BME280;3001;42.622;23.194;2024-02-23T06:14:11;90950.72;;;18.47;38.94
5952;BME280;3001;42.622;23.194;2024-02-23T06:16:37;90943.44;;;18.63;38.92
5952;BME280;3001;42.622;23.194;2024-02-23T06:19:05;90960.63;;;18.57;39.38
5952;BME280;3001;42.622;23.194;2024-02-23T06:21:32;90948.56;;;18.56;39.14
5952;BME280;3001;42.622;23.194;2024-02-23T06:24:00;90950.78;;;18.80;38.53
5952;BME280;3001;42.622;23.194;2024-02-23T06:26:28;90953.34;;;18.47;39.23
5952;BME280;3001;42.622;23.194;2024-02-23T06:28:54;90963.38;;;18.97;38.64
5952;BME280;3001;42.622;23.194;2024-02-23T06:31:21;90959.78;;;18.79;38.85
5952;BME280;3001;42.622;23.194;2024-02-23T06:33:48;90961.84;;;18.63;39.03
5952;BME280;3001;42.622;23.194;2024-02-23T06:36:16;90963.75;;;18.66;39.14
5952;BME280;3001;42.622;23.194;2024-02-23T06:38:43;90958.56;;;18.73;38.95
5952;BME280;3001;42.622;23.194;2024-02-23T06:41:12;90953.03;;;18.52;39.43
5952;BME280;3001;42.622;23.194;2024-02-23T06:43:39;90964.41;;;18.59;39.23
5952;BME280;3001;42.622;23.194;2024-02-23T06:46:06;90961.25;;;18.47;39.78
5952;BME280;3001;42.622;23.194;2024-02-23T06:48:33;90959.09;;;18.56;39.37
5952;BME280;3001;42.622;23.194;2024-02-23T06:51:00;90971.69;;;18.69;39.32
5952;BME280;3001;42.622;23.194;2024-02-23T06:53:27;90962.97;;;18.13;40.11
5952;BME280;3001;42.622;23.194;2024-02-23T06:55:54;90966.06;;;18.71;39.38
5952;BME280;3001;42.622;23.194;2024-02-23T06:58:22;90976.09;;;18.36;39.60
5952;BME280;3001;42.622;23.194;2024-02-23T07:00:49;90968.13;;;18.29;39.67
5952;BME280;3001;42.622;23.194;2024-02-23T07:03:16;90971.03;;;18.50;39.56
5952;BME280;3001;42.622;23.194;2024-02-23T07:05:42;90974.34;;;18.43;39.63
5952;BME280;3001;42.622;23.194;2024-02-23T07:08:10;90969.19;;;18.50;39.46
5952;BME280;3001;42.622;23.194;2024-02-23T07:10:37;90975.47;;;18.72;39.20
5952;BME280;3001;42.622;23.194;2024-02-23T07:13:04;90955.22;;;18.76;38.81
5952;BME280;3001;42.622;23.194;2024-02-23T07:15:32;90976.34;;;18.79;38.87
5952;BME280;3001;42.622;23.194;2024-02-23T07:17:59;90973.88;;;18.93;38.56
5952;BME280;3001;42.622;23.194;2024-02-23T07:20:26;90979.22;;;19.00;38.52
5952;BME280;3001;42.622;23.194;2024-02-23T07:22:52;90970.25;;;19.05;38.25
5952;BME280;3001;42.622;23.194;2024-02-23T07:25:19;90979.63;;;19.02;38.15
5952;BME280;3001;42.622;23.194;2024-02-23T07:27:47;90979.00;;;19.12;38.38
5952;BME280;3001;42.622;23.194;2024-02-23T07:30:15;90959.22;;;19.25;37.97
5952;BME280;3001;42.622;23.194;2024-02-23T07:32:44;90975.03;;;18.96;38.05
5952;BME280;3001;42.622;23.194;2024-02-23T07:35:11;90962.03;;;19.10;38.57
5952;BME280;3001;42.622;23.194;2024-02-23T07:37:38;90969.28;;;18.87;38.59
5952;BME280;3001;42.622;23.194;2024-02-23T07:40:06;90966.00;;;19.26;37.88
5952;BME280;3001;42.622;23.194;2024-02-23T07:42:33;90973.22;;;19.00;38.69
5952;BME280;3001;42.622;23.194;2024-02-23T07:45:01;90979.56;;;19.28;37.77
5952;BME280;3001;42.622;23.194;2024-02-23T07:47:29;90966.44;;;19.64;37.42
5952;BME280;3001;42.622;23.194;2024-02-23T07:49:58;90976.13;;;19.57;37.59
5952;BME280;3001;42.622;23.194;2024-02-23T07:52:25;90967.13;;;19.58;37.52
5952;BME280;3001;42.622;23.194;2024-02-23T07:54:52;90970.47;;;19.22;38.46
5952;BME280;3001;42.622;23.194;2024-02-23T07:57:19;90985.06;;;19.49;38.08
5952;BME280;3001;42.622;23.194;2024-02-23T07:59:46;90980.25;;;19.54;37.83
5952;BME280;3001;42.622;23.194;2024-02-23T08:02:14;90978.09;;;19.63;37.67
5952;BME280;3001;42.622;23.194;2024-02-23T08:04:41;90977.06;;;19.75;37.94
5952;BME280;3001;42.622;23.194;2024-02-23T08:07:09;90979.50;;;19.54;38.10
5952;BME280;3001;42.622;23.194;2024-02-23T08:09:36;90985.47;;;19.87;37.47
5952;BME280;3001;42.622;23.194;2024-02-23T08:12:04;90982.44;;;19.85;37.78
5952;BME280;3001;42.622;23.194;2024-02-23T08:14:30;90982.31;;;20.11;37.18
5952;BME280;3001;42.622;23.194;2024-02-23T08:16:58;90977.63;;;20.38;37.18
5952;BME280;3001;42.622;23.194;2024-02-23T08:19:25;90981.19;;;20.66;36.55
5952;BME280;3001;42.622;23.194;2024-02-23T08:21:51;90995.56;;;20.72;36.45
5952;BME280;3001;42.622;23.194;2024-02-23T08:24:19;90983.03;;;20.62;36.16
5952;BME280;3001;42.622;23.194;2024-02-23T08:26:46;90999.94;;;20.47;36.62
5952;BME280;3001;42.622;23.194;2024-02-23T08:29:13;90988.69;;;20.61;36.15
5952;BME280;3001;42.622;23.194;2024-02-23T08:31:40;90987.75;;;20.32;36.25
5952;BME280;3001;42.622;23.194;2024-02-23T08:34:06;91001.25;;;19.84;36.70
5952;BME280;3001;42.622;23.194;2024-02-23T08:36:33;91004.50;;;20.07;36.49
5952;BME280;3001;42.622;23.194;2024-02-23T08:39:00;90993.41;;;20.85;35.85
5952;BME280;3001;42.622;23.194;2024-02-23T08:41:28;91004.75;;;20.92;35.74
5952;BME280;3001;42.622;23.194;2024-02-23T08:43:55;90995.78;;;21.10;35.37
5952;BME280;3001;42.622;23.194;2024-02-23T08:46:21;90996.97;;;21.20;35.36
5952;BME280;3001;42.622;23.194;2024-02-23T08:48:48;91000.63;;;20.95;35.87
5952;BME280;3001;42.622;23.194;2024-02-23T08:51:15;91009.13;;;21.38;35.39
5952;BME280;3001;42.622;23.194;2024-02-23T08:53:41;91011.34;;;21.26;35.31
5952;BME280;3001;42.622;23.194;2024-02-23T08:56:08;91011.09;;;21.55;35.26
5952;BME280;3001;42.622;23.194;2024-02-23T08:58:36;91012.31;;;21.79;35.04
5952;BME280;3001;42.622;23.194;2024-02-23T09:01:03;91006.91;;;21.54;34.85
5952;BME280;3001;42.622;23.194;2024-02-23T09:03:30;91007.00;;;21.65;34.96
5952;BME280;3001;42.622;23.194;2024-02-23T09:05:58;91008.19;;;21.92;34.60
5952;BME280;3001;42.622;23.194;2024-02-23T09:08:26;91012.44;;;22.38;33.84
5952;BME280;3001;42.622;23.194;2024-02-23T09:10:53;91010.50;;;22.46;33.98
5952;BME280;3001;42.622;23.194;2024-02-23T09:13:19;91010.50;;;22.70;33.63
5952;BME280;3001;42.622;23.194;2024-02-23T09:15:48;91007.88;;;22.60;34.04
5952;BME280;3001;42.622;23.194;2024-02-23T09:18:15;91006.75;;;22.64;33.70
5952;BME280;3001;42.622;23.194;2024-02-23T09:20:41;91028.69;;;22.58;33.52
5952;BME280;3001;42.622;23.194;2024-02-23T09:23:08;91023.38;;;22.54;33.05
5952;BME280;3001;42.622;23.194;2024-02-23T09:25:35;91016.16;;;22.83;33.14
5952;BME280;3001;42.622;23.194;2024-02-23T09:28:02;91016.16;;;22.96;32.86
5952;BME280;3001;42.622;23.194;2024-02-23T09:30:29;91012.44;;;22.49;32.71
5952;BME280;3001;42.622;23.194;2024-02-23T09:32:57;91013.13;;;23.08;32.96
5952;BME280;3001;42.622;23.194;2024-02-23T09:35:23;91006.72;;;22.82;32.80
5952;BME280;3001;42.622;23.194;2024-02-23T09:37:50;91015.75;;;23.01;32.90
5952;BME280;3001;42.622;23.194;2024-02-23T09:40:17;91019.56;;;23.14;32.62
5952;BME280;3001;42.622;23.194;2024-02-23T09:42:48;91016.75;;;23.56;31.50
5952;BME280;3001;42.622;23.194;2024-02-23T09:45:17;91020.31;;;23.11;32.53
5952;BME280;3001;42.622;23.194;2024-02-23T09:47:44;91003.91;;;23.51;31.94
5952;BME280;3001;42.622;23.194;2024-02-23T09:50:13;91009.63;;;23.43;31.70
5952;BME280;3001;42.622;23.194;2024-02-23T09:52:40;91002.31;;;23.71;32.29
5952;BME280;3001;42.622;23.194;2024-02-23T09:55:07;91002.69;;;23.66;32.00
5952;BME280;3001;42.622;23.194;2024-02-23T09:57:36;90995.00;;;23.93;31.23
5952;BME280;3001;42.622;23.194;2024-02-23T10:00:04;91007.53;;;23.89;30.67
5952;BME280;3001;42.622;23.194;2024-02-23T10:02:32;90989.94;;;24.16;30.52
5952;BME280;3001;42.622;23.194;2024-02-23T10:05:00;90990.00;;;24.09;30.97
5952;BME280;3001;42.622;23.194;2024-02-23T10:07:29;90994.31;;;23.78;31.18
5952;BME280;3001;42.622;23.194;2024-02-23T10:09:56;91002.22;;;23.92;30.57
5952;BME280;3001;42.622;23.194;2024-02-23T10:12:22;90996.81;;;23.20;31.57
5952;BME280;3001;42.622;23.194;2024-02-23T10:14:49;91003.41;;;23.77;31.41
5952;BME280;3001;42.622;23.194;2024-02-23T10:17:17;90994.41;;;23.57;31.17
5952;BME280;3001;42.622;23.194;2024-02-23T10:19:44;90989.38;;;23.80;30.86
5952;BME280;3001;42.622;23.194;2024-02-23T10:22:11;91002.72;;;23.63;30.94
5952;BME280;3001;42.622;23.194;2024-02-23T10:24:39;90997.72;;;23.82;30.73
5952;BME280;3001;42.622;23.194;2024-02-23T10:27:06;90995.88;;;23.65;31.28
5952;BME280;3001;42.622;23.194;2024-02-23T10:29:32;90986.41;;;23.64;31.06
5952;BME280;3001;42.622;23.194;2024-02-23T10:32:01;90983.34;;;23.73;31.14
5952;BME280;3001;42.622;23.194;2024-02-23T10:34:29;90974.19;;;23.88;30.90
5952;BME280;3001;42.622;23.194;2024-02-23T10:36:56;90966.53;;;24.00;30.56
5952;BME280;3001;42.622;23.194;2024-02-23T10:39:24;90968.00;;;24.08;30.68
5952;BME280;3001;42.622;23.194;2024-02-23T10:41:56;90966.41;;;24.18;30.66
5952;BME280;3001;42.622;23.194;2024-02-23T10:44:24;90969.38;;;24.27;30.08
5952;BME280;3001;42.622;23.194;2024-02-23T10:46:51;90964.88;;;24.24;29.47
5952;BME280;3001;42.622;23.194;2024-02-23T10:49:19;90963.50;;;24.02;30.06
5952;BME280;3001;42.622;23.194;2024-02-23T10:51:48;90969.38;;;24.27;30.01
5952;BME280;3001;42.622;23.194;2024-02-23T10:54:15;90964.59;;;24.08;30.04
5952;BME280;3001;42.622;23.194;2024-02-23T10:56:46;90945.91;;;23.60;30.10
5952;BME280;3001;42.622;23.194;2024-02-23T10:59:15;90941.91;;;24.00;30.11
5952;BME280;3001;42.622;23.194;2024-02-23T11:01:44;90940.19;;;24.27;29.83
5952;BME280;3001;42.622;23.194;2024-02-23T11:04:12;90940.59;;;24.69;29.78
5952;BME280;3001;42.622;23.194;2024-02-23T11:06:40;90930.38;;;24.17;29.82
5952;BME280;3001;42.622;23.194;2024-02-23T11:09:06;90932.19;;;23.72;30.44
5952;BME280;3001;42.622;23.194;2024-02-23T11:11:34;90930.19;;;24.45;29.30
5952;BME280;3001;42.622;23.194;2024-02-23T11:14:02;90934.97;;;24.64;29.84
5952;BME280;3001;42.622;23.194;2024-02-23T11:16:31;90931.13;;;25.05;28.49
5952;BME280;3001;42.622;23.194;2024-02-23T11:19:04;90932.94;;;25.11;28.97
5952;BME280;3001;42.622;23.194;2024-02-23T11:21:34;90931.50;;;25.40;27.92
5952;BME280;3001;42.622;23.194;2024-02-23T11:24:03;90928.25;;;25.26;28.31
5952;BME280;3001;42.622;23.194;2024-02-23T11:26:30;90920.31;;;24.85;27.98
5952;BME280;3001;42.622;23.194;2024-02-23T11:28:57;90920.84;;;25.07;27.83
5952;BME280;3001;42.622;23.194;2024-02-23T11:31:28;90917.28;;;25.54;28.17
5952;BME280;3001;42.622;23.194;2024-02-23T11:33:57;90922.59;;;25.54;27.64
5952;BME280;3001;42.622;23.194;2024-02-23T11:36:29;90922.84;;;25.63;27.95
5952;BME280;3001;42.622;23.194;2024-02-23T11:38:57;90923.31;;;25.58;27.42
5952;BME280;3001;42.622;23.194;2024-02-23T11:41:24;90947.22;;;25.28;27.47
5952;BME280;3001;42.622;23.194;2024-02-23T11:43:51;90918.84;;;25.14;27.83
5952;BME280;3001;42.622;23.194;2024-02-23T11:46:19;90926.56;;;24.69;28.49
5952;BME280;3001;42.622;23.194;2024-02-23T11:48:46;90935.50;;;24.85;28.62
5952;BME280;3001;42.622;23.194;2024-02-23T11:51:20;90916.69;;;24.69;27.92
5952;BME280;3001;42.622;23.194;2024-02-23T11:53:47;90915.59;;;24.63;28.36
5952;BME280;3001;42.622;23.194;2024-02-23T11:56:14;90909.72;;;24.42;29.08
5952;BME280;3001;42.622;23.194;2024-02-23T11:58:41;90910.75;;;24.07;29.53
5952;BME280;3001;42.622;23.194;2024-02-23T12:01:08;90896.94;;;24.26;28.89
5952;BME280;3001;42.622;23.194;2024-02-23T12:03:35;90914.66;;;24.40;28.56
5952;BME280;3001;42.622;23.194;2024-02-23T12:06:04;90909.16;;;24.97;28.04
5952;BME280;3001;42.622;23.194;2024-02-23T12:08:32;90912.81;;;24.77;28.01
5952;BME280;3001;42.622;23.194;2024-02-23T12:11:05;90913.75;;;24.97;28.23
5952;BME280;3001;42.622;23.194;2024-02-23T12:13:33;90898.72;;;25.47;28.39
5952;BME280;3001;42.622;23.194;2024-02-23T12:16:00;90880.00;;;24.94;27.97
5952;BME280;3001;42.622;23.194;2024-02-23T12:18:27;90901.88;;;24.72;28.02
5952;BME280;3001;42.622;23.194;2024-02-23T12:20:59;90899.00;;;24.89;27.13
5952;BME280;3001;42.622;23.194;2024-02-23T12:23:25;90891.22;;;24.31;28.19
5952;BME280;3001;42.622;23.194;2024-02-23T12:25:54;90891.31;;;24.65;28.07
5952;BME280;3001;42.622;23.194;2024-02-23T12:28:22;90891.41;;;24.91;27.62
5952;BME280;3001;42.622;23.194;2024-02-23T12:31:00;90887.50;;;24.66;27.87
5952;BME280;3001;42.622;23.194;2024-02-23T12:33:28;90868.84;;;24.73;28.60
5952;BME280;3001;42.622;23.194;2024-02-23T12:35:56;90883.19;;;24.38;28.09
5952;BME280;3001;42.622;23.194;2024-02-23T12:38:22;90887.69;;;24.45;28.08
5952;BME280;3001;42.622;23.194;2024-02-23T12:40:49;90879.25;;;24.13;28.54
5952;BME280;3001;42.622;23.194;2024-02-23T12:43:18;90876.44;;;24.71;28.24
5952;BME280;3001;42.622;23.194;2024-02-23T12:45:46;90878.78;;;24.65;27.80
5952;BME280;3001;42.622;23.194;2024-02-23T12:48:14;90877.72;;;25.26;27.29
5952;BME280;3001;42.622;23.194;2024-02-23T12:50:41;90872.81;;;25.24;27.09
5952;BME280;3001;42.622;23.194;2024-02-23T12:53:08;90874.13;;;25.06;27.26
5952;BME280;3001;42.622;23.194;2024-02-23T12:55:35;90886.75;;;24.98;26.66
5952;BME280;3001;42.622;23.194;2024-02-23T12:58:03;90882.06;;;25.13;26.48
5952;BME280;3001;42.622;23.194;2024-02-23T13:00:31;90884.97;;;24.92;26.87
5952;BME280;3001;42.622;23.194;2024-02-23T13:02:57;90879.81;;;24.75;27.64
5952;BME280;3001;42.622;23.194;2024-02-23T13:05:24;90883.03;;;24.59;27.58
5952;BME280;3001;42.622;23.194;2024-02-23T13:07:51;90895.75;;;25.08;27.34
5952;BME280;3001;42.622;23.194;2024-02-23T13:10:17;90877.50;;;25.10;27.01